Flight Track Log - Related Links

Times and Time Zones

All times are in EDT time to prevent confusion due to time zone crossing. See the SWA34 flight status page for this flight to view local times or setup timezone preferences in your user account.

Time Position Orientation Groundspeed Altitude Reporting Facility
EDT Latitude Longitude Course Direction KTS MPH feet Rate Location/Type
Mon 08:23:09 PM 38.7333 -90.3167 90° East 151 174 2,100  Level Gateway (St. Louis) TRACON
Mon 08:24:09 PM 38.7333 -90.2500 90° East 230 265 4,100 2,220 Climbing Gateway (St. Louis) TRACON
Mon 08:25:16 PM 38.7467 -90.1447 81° East 247 284 6,800 2,791 Climbing Kansas City Center
Mon 08:26:18 PM 38.7542 -90.0414 85° East 280 322 10,100 2,855 Climbing Kansas City Center
Mon 08:27:20 PM 38.7631 -89.9233 84° East 322 371 12,700 3,000 Climbing Kansas City Center
Mon 08:28:22 PM 38.7722 -89.7992 85° East 350 403 16,300 3,463 Climbing Kansas City Center
Mon 08:29:23 PM 38.7822 -89.6472 85° East 369 425 19,800 3,073 Climbing Kansas City Center
Mon 08:30:25 PM 38.7925 -89.5044 85° East 398 458 22,600 2,565 Climbing Kansas City Center
Mon 08:31:27 PM 38.8111 -89.3583 81° East 413 475 25,100 2,371 Climbing Kansas City Center
Mon 08:32:29 PM 38.8325 -89.1925 81° East 435 501 27,500 2,129 Climbing Kansas City Center
Mon 08:33:31 PM 38.8519 -89.0342 81° East 449 517 29,500 1,742 Climbing Kansas City Center
Mon 08:34:33 PM 38.8750 -88.8753 79° East 466 536 31,100 1,756 Climbing Kansas City Center
Mon 08:35:34 PM 38.8967 -88.7072 81° East 477 549 33,100 2,049 Climbing Kansas City Center
Mon 08:36:36 PM 38.9164 -88.5333 82° East 472 543 35,300 1,887 Climbing Kansas City Center
Mon 08:37:38 PM 38.9672 -88.3825 67° East 461 531 37,000 1,500 Climbing Kansas City Center
Mon 08:38:40 PM 39.0283 -88.2383 61° Northeast 457 526 38,400 1,053 Climbing Kansas City Center
Mon 08:39:32 PM 39.0872 -88.0967 62° Northeast 459 528 39,000 316 Climbing Indianapolis Center
Mon 08:40:34 PM 39.1511 -87.9492 61° Northeast 464 534 39,000  Level Indianapolis Center
Mon 08:41:36 PM 39.2144 -87.8025 61° Northeast 466 536 39,000  Level Indianapolis Center
Mon 08:42:37 PM 39.2764 -87.6558 61° Northeast 464 534 39,000  Level Indianapolis Center
Mon 08:43:39 PM 39.3403 -87.5094 61° Northeast 462 532 39,000  Level Indianapolis Center
Mon 08:44:41 PM 39.4022 -87.3608 62° Northeast 467 537 39,000  Level Indianapolis Center
Mon 08:45:42 PM 39.4639 -87.2125 62° Northeast 466 536 39,000  Level Indianapolis Center
Mon 08:46:44 PM 39.5214 -87.0608 64° Northeast 469 540 39,000  Level Indianapolis Center
Mon 08:47:45 PM 39.5636 -86.8697 74° East 469 540 39,000 -244 Level Indianapolis Center
Mon 08:48:47 PM 39.6031 -86.7058 73° East 472 543 38,500 -683 Descending Indianapolis Center
Mon 08:49:48 PM 39.6414 -86.5439 73° East 468 539 37,600 -1,073 Descending Indianapolis Center
Mon 08:50:50 PM 39.6811 -86.3753 73° East 470 541 36,300 -1,463 Descending Indianapolis Center
Mon 08:51:51 PM 39.7183 -86.2122 73° East 471 542 34,600 -1,659 Descending Indianapolis Center
Mon 08:52:53 PM 39.7586 -86.0364 73° East 473 544 32,900 -1,610 Descending Indianapolis Center
Mon 08:53:54 PM 39.7964 -85.8725 73° East 473 544 31,300 -1,659 Descending Indianapolis Center
Mon 08:54:56 PM 39.8333 -85.7106 73° East 468 539 29,500 -1,122 Descending Indianapolis Center
Mon 08:55:57 PM 39.8697 -85.5511 73° East 460 529 29,000 -246 Descending Indianapolis Center
Mon 08:56:58 PM 39.9056 -85.3928 74° East 456 525 29,000  Level Indianapolis Center
Mon 08:58:00 PM 39.9406 -85.2333 74° East 456 525 29,000  Level Indianapolis Center
Mon 08:59:01 PM 39.9753 -85.0733 74° East 457 526 29,000 -197 Level Indianapolis Center
Mon 09:00:02 PM 40.0117 -84.9136 73° East 457 526 28,600 -732 Descending Indianapolis Center
Mon 09:01:04 PM 40.0444 -84.7517 75° East 446 513 27,500 -1,024 Descending Indianapolis Center
Mon 09:02:05 PM 40.0792 -84.5969 74° East 440 506 26,500 -976 Descending Indianapolis Center
Mon 09:03:07 PM 40.1122 -84.4469 74° East 426 490 25,500 -976 Descending Indianapolis Center
Mon 09:04:08 PM 40.1425 -84.2986 75° East 417 480 24,500 -1,033 Descending Indianapolis Center
Mon 09:05:09 PM 40.1736 -84.1542 74° East 408 470 23,400 -1,415 Descending Indianapolis Center
Mon 09:06:11 PM 40.2036 -84.0089 75° East 407 468 21,600 -1,980 Descending Indianapolis Center
Mon 09:06:49 PM 40.2264 -83.9083 73° East 391 450 20,100 -2,066 Descending Indianapolis Center
Mon 09:07:12 PM 40.2328 -83.8717 77° East 389 448 19,500 -2,100 Descending Indianapolis Center
Mon 09:07:49 PM 40.2531 -83.7750 75° East 379 436 18,000 -2,066 Descending Indianapolis Center
Mon 09:08:13 PM 40.2600 -83.7369 77° East 379 436 17,400 -2,239 Descending Indianapolis Center
Mon 09:08:56 PM 40.2475 -83.6239 98° East 374 430 15,500 -2,323 Descending Indianapolis Center
Mon 09:09:15 PM 40.2433 -83.6044 106° East 375 432 15,000 -3,045 Descending Indianapolis Center
Mon 09:10:03 PM 40.2008 -83.4869 115° Southeast 379 436 12,100 -2,311 Descending Indianapolis Center
Mon 09:11:17 PM 40.1667 -83.3469 108° East 364 419 10,300 -1,244 Descending Indianapolis Center
Mon 09:12:18 PM 40.1378 -83.2164 106° East 317 365 9,300 -1,188 Descending Indianapolis Center
Mon 09:12:53 PM 40.1258 -83.1586 105° East 292 336 8,400 -1,548 Descending Indianapolis Center
Mon 09:13:20 PM 40.1233 -83.1111 94° East 296 341 7,700 -1,412 Descending Indianapolis Center
Mon 09:14:18 PM 40.1208 -83.0164 92° East 285 328 6,400 -1,404 Descending Indianapolis Center
Mon 09:14:54 PM 40.1169 -82.9533 95° East 277 319 5,500 -1,125 Descending Indianapolis Center
Mon 09:15:22 PM 40.1164 -82.9069 91° East 275 316 5,200 -533 Descending Indianapolis Center
Mon 09:16:24 PM 40.1142 -82.8231 92° East 239 275 4,700 -566 Descending Indianapolis Center
Mon 09:17:08 PM 40.0978 -82.7683 111° Southeast 213 245 4,200 -590 Descending Indianapolis Center
Mon 09:17:25 PM 40.0903 -82.7517 120° Southeast 225 259 4,100 -273 Descending Indianapolis Center
Mon 09:18:14 PM 40.0686 -82.7053 121° Southeast 176 203 3,900 -414 Descending Indianapolis Center
Mon 09:19:21 PM 40.0256 -82.7222 197° South 152 175 3,300 -655 Descending Indianapolis Center
Mon 09:20:04 PM 40.0067 -82.7528 231° Southwest 153 176 2,700 -706 Descending Indianapolis Center
Mon 09:20:29 PM 39.9975 -82.7689 233° Southwest 160 184 2,500 -787 Descending Indianapolis Center
Mon 09:21:05 PM 39.9889 -82.7997 250° West 133 153 1,900 -787 Descending Indianapolis Center
Mon 09:21:30 PM 39.9897 -82.8144 274° West 139 160 1,700 -700 Descending Indianapolis Center
Mon 09:22:05 PM 39.9922 -82.8464 276° West 130 150 1,200 -492 Descending Indianapolis Center
Mon 09:22:31 PM 39.9922 -82.8628 270° West 137 158 1,200  Level Indianapolis Center

Login

Don't have an account? Register now (free) for customized features, flight alerts, and more!